Time;durP1;ratioP1;P1;durP2;ratioP2;P2;SDS_P1;SDS_P2;PMS_P1;PMS_P2;Temp;Humidity;BMP_temperature;BMP_pressure;BME280_temperature;BME280_humidity;BME280_pressure;Samples;Min_cycle;Max_cycle;Signal;HPM_P1;HPM_P2
2023/09/26 00:00:59;;;;;;;5.95;3.03;;;15.10;78.20;;;;;;5032856;28;20452;-74
2023/09/26 00:03:25;;;;;;;6.72;3.00;;;15.10;79.60;;;;;;5035492;28;20048;-75
2023/09/26 00:05:53;;;;;;;6.88;2.80;;;15.10;76.80;;;;;;5051594;28;21435;-74
2023/09/26 00:08:19;;;;;;;6.55;3.08;;;15.10;69.70;;;;;;5050664;28;20406;-74
2023/09/26 00:10:47;;;;;;;6.95;3.33;;;15.20;64.30;;;;;;5048659;28;20044;-74
2023/09/26 00:13:14;;;;;;;5.70;2.80;;;15.10;56.10;;;;;;5045754;28;20465;-74
2023/09/26 00:15:40;;;;;;;4.65;2.67;;;15.20;52.80;;;;;;5049507;28;20044;-74
2023/09/26 00:18:06;;;;;;;4.32;3.50;;;15.20;53.50;;;;;;5045523;28;20037;-74
2023/09/26 00:20:35;;;;;;;3.97;2.25;;;15.20;51.00;;;;;;5050956;28;20048;-74
2023/09/26 00:23:01;;;;;;;6.45;2.83;;;15.20;55.00;;;;;;5047672;28;20518;-74
2023/09/26 00:25:27;;;;;;;5.85;3.03;;;15.20;56.60;;;;;;5057500;28;20044;-74
2023/09/26 00:27:53;;;;;;;4.80;2.70;;;15.20;48.30;;;;;;5053286;28;20047;-74
2023/09/26 00:30:20;;;;;;;6.70;2.95;;;15.20;42.20;;;;;;5032579;28;20040;-74
2023/09/26 00:32:46;;;;;;;5.43;3.20;;;15.20;32.80;;;;;;5047195;28;20044;-74
2023/09/26 00:35:12;;;;;;;4.82;2.90;;;15.20;34.80;;;;;;5024821;28;20103;-75
2023/09/26 00:37:42;;;;;;;5.30;2.70;;;15.30;34.90;;;;;;5057817;28;20056;-74
2023/09/26 00:40:15;;;;;;;7.90;3.13;;;15.30;29.70;;;;;;5053226;28;20044;-74
2023/09/26 00:42:42;;;;;;;5.63;3.70;;;15.30;37.80;;;;;;5044794;28;20799;-74
2023/09/26 00:45:08;;;;;;;3.70;3.08;;;15.30;45.00;;;;;;5049408;28;20441;-74
2023/09/26 00:47:35;;;;;;;5.88;2.97;;;15.20;58.80;;;;;;5030918;28;20445;-74
2023/09/26 00:50:12;;;;;;;4.82;3.08;;;15.20;70.20;;;;;;5050695;28;20086;-75
2023/09/26 00:52:41;;;;;;;3.30;3.00;;;15.20;73.70;;;;;;5024924;28;20574;-74
2023/09/26 00:55:07;;;;;;;4.85;3.20;;;15.20;86.10;;;;;;5061587;28;20047;-74
2023/09/26 00:57:33;;;;;;;3.72;3.00;;;15.20;91.80;;;;;;5026179;28;20056;-74
2023/09/26 01:00:01;;;;;;;7.00;3.22;;;15.20;90.30;;;;;;5044419;28;20129;-74
2023/09/26 01:02:27;;;;;;;4.65;3.50;;;15.20;80.10;;;;;;5034576;28;20040;-74
2023/09/26 01:04:53;;;;;;;4.15;3.30;;;15.20;77.30;;;;;;5035796;28;20533;-74
2023/09/26 01:07:19;;;;;;;4.93;3.53;;;15.10;73.50;;;;;;5047744;28;20556;-74
2023/09/26 01:09:45;;;;;;;8.05;3.85;;;15.10;70.20;;;;;;5033679;28;20040;-74
2023/09/26 01:12:11;;;;;;;6.78;3.42;;;15.10;61.90;;;;;;5033491;28;20093;-75
2023/09/26 01:14:37;;;;;;;4.07;3.33;;;15.10;59.50;;;;;;5025810;28;20029;-75
2023/09/26 01:17:03;;;;;;;6.10;3.67;;;15.10;61.90;;;;;;5042868;28;20505;-74
2023/09/26 01:19:29;;;;;;;6.55;4.10;;;15.10;59.30;;;;;;5058803;28;20093;-75
2023/09/26 01:21:55;;;;;;;5.07;3.67;;;15.10;56.80;;;;;;5047408;28;20044;-75
2023/09/26 01:24:21;;;;;;;4.90;3.53;;;15.10;53.00;;;;;;5042738;28;20048;-74
2023/09/26 01:26:46;;;;;;;4.30;3.63;;;15.10;61.10;;;;;;5038499;28;20121;-74
2023/09/26 01:29:12;;;;;;;5.53;3.88;;;15.00;71.40;;;;;;5043226;28;20096;-74
2023/09/26 01:31:38;;;;;;;6.13;3.90;;;15.00;76.60;;;;;;5044951;28;20045;-74
2023/09/26 01:34:03;;;;;;;5.32;3.85;;;14.90;74.60;;;;;;5029466;28;20067;-74
2023/09/26 01:36:30;;;;;;;5.18;3.70;;;14.90;71.40;;;;;;5034823;28;20423;-74
2023/09/26 01:38:55;;;;;;;6.53;3.88;;;14.80;66.50;;;;;;5048729;28;20181;-75
2023/09/26 01:41:25;;;;;;;4.68;3.72;;;14.80;62.90;;;;;;5032810;28;20140;-74
2023/09/26 01:43:51;;;;;;;6.65;3.70;;;14.90;58.30;;;;;;5047674;28;20055;-74
2023/09/26 01:46:22;;;;;;;5.78;4.05;;;14.80;78.30;;;;;;5032886;28;20032;-74
2023/09/26 01:48:47;;;;;;;5.80;4.38;;;14.80;78.70;;;;;;5049896;28;20064;-75
2023/09/26 01:51:14;;;;;;;5.85;4.38;;;14.70;81.00;;;;;;5035114;28;20633;-74
2023/09/26 01:53:39;;;;;;;5.07;3.75;;;14.80;64.70;;;;;;5060565;28;20037;-74
2023/09/26 01:56:05;;;;;;;5.68;3.70;;;14.80;60.60;;;;;;5031112;28;20040;-75
2023/09/26 01:58:32;;;;;;;8.43;4.10;;;14.80;66.50;;;;;;5046000;28;20051;-74
2023/09/26 02:00:58;;;;;;;12.40;4.75;;;14.80;58.20;;;;;;5032253;28;20410;-75
2023/09/26 02:03:23;;;;;;;7.10;4.55;;;14.80;67.00;;;;;;5039584;28;20040;-74
2023/09/26 02:05:49;;;;;;;6.43;4.30;;;14.70;85.50;;;;;;5043599;28;20056;-74
2023/09/26 02:08:16;;;;;;;7.75;4.90;;;14.70;90.80;;;;;;5047331;28;20044;-74
2023/09/26 02:10:42;;;;;;;6.45;4.63;;;14.70;92.70;;;;;;5026095;28;20111;-75
2023/09/26 02:13:08;;;;;;;6.50;4.05;;;14.70;88.50;;;;;;5056403;28;20178;-75
2023/09/26 02:15:35;;;;;;;7.68;4.80;;;14.70;89.40;;;;;;5044783;28;20048;-75
2023/09/26 02:18:01;;;;;;;9.60;4.93;;;14.70;93.40;;;;;;5052352;28;20043;-74
2023/09/26 02:20:27;;;;;;;8.73;5.68;;;14.70;99.70;;;;;;5032038;28;20421;-74
2023/09/26 02:22:53;;;;;;;6.47;4.78;;;14.60;95.10;;;;;;5032195;28;20116;-74
2023/09/26 02:25:19;;;;;;;7.57;4.63;;;14.60;83.50;;;;;;5039798;28;20045;-74
2023/09/26 02:27:45;;;;;;;9.65;5.30;;;14.60;75.60;;;;;;5055790;28;20045;-74
2023/09/26 02:30:15;;;;;;;7.28;5.07;;;14.60;83.10;;;;;;5041414;28;20040;-74
2023/09/26 02:32:41;;;;;;;6.10;4.63;;;14.60;89.30;;;;;;5040105;28;20483;-75
2023/09/26 02:35:12;;;;;;;6.90;4.82;;;14.60;95.00;;;;;;5029354;28;20040;-75
2023/09/26 02:37:38;;;;;;;8.75;5.45;;;14.60;87.10;;;;;;5050731;28;20121;-74
2023/09/26 02:40:10;;;;;;;8.27;5.32;;;14.60;95.30;;;;;;5049582;28;20044;-74
2023/09/26 02:42:38;;;;;;;7.35;5.07;;;14.60;88.20;;;;;;5046934;28;20057;-74
2023/09/26 02:45:04;;;;;;;7.97;5.40;;;14.50;83.90;;;;;;5043205;28;20722;-74
2023/09/26 02:47:30;;;;;;;8.82;5.70;;;14.50;87.80;;;;;;5033532;28;20054;-74
2023/09/26 02:49:56;;;;;;;8.07;5.75;;;14.50;86.20;;;;;;5064260;28;20032;-75
2023/09/26 02:52:22;;;;;;;8.57;5.35;;;14.50;89.60;;;;;;5032008;28;20380;-74
2023/09/26 02:54:48;;;;;;;9.10;6.00;;;14.40;93.60;;;;;;5028593;28;20155;-74
2023/09/26 02:57:15;;;;;;;8.65;5.95;;;14.40;93.00;;;;;;5052707;28;20135;-74
2023/09/26 02:59:40;;;;;;;8.70;5.63;;;14.40;92.70;;;;;;5051028;28;20406;-74
2023/09/26 03:02:06;;;;;;;8.02;5.60;;;14.40;92.90;;;;;;5036362;28;20041;-74
2023/09/26 03:04:33;;;;;;;10.10;6.05;;;14.30;97.50;;;;;;5042889;28;20737;-74
2023/09/26 03:06:58;;;;;;;8.27;6.22;;;14.30;99.90;;;;;;5036305;28;20032;-74
2023/09/26 03:09:24;;;;;;;8.40;5.30;;;14.20;99.90;;;;;;5034921;28;20164;-74
2023/09/26 03:11:50;;;;;;;8.52;5.38;;;14.00;99.90;;;;;;5034229;28;20032;-74
2023/09/26 03:14:17;;;;;;;8.13;6.00;;;13.80;99.90;;;;;;5042622;28;20041;-74
2023/09/26 03:16:42;;;;;;;9.07;6.30;;;13.70;99.90;;;;;;5031798;28;20040;-74
2023/09/26 03:19:09;;;;;;;9.48;6.47;;;13.60;99.90;;;;;;5052087;28;20040;-74
2023/09/26 03:21:34;;;;;;;11.50;6.10;;;13.60;99.90;;;;;;5025167;28;20517;-74
2023/09/26 03:24:00;;;;;;;8.77;6.40;;;13.60;99.90;;;;;;5053114;28;20048;-74
2023/09/26 03:26:25;;;;;;;8.60;6.22;;;13.50;99.90;;;;;;5048974;28;20035;-74
2023/09/26 03:28:51;;;;;;;8.70;5.82;;;13.40;99.90;;;;;;5039381;28;20045;-74
2023/09/26 03:31:17;;;;;;;9.75;6.53;;;13.30;99.90;;;;;;5039595;28;20120;-74
2023/09/26 03:33:42;;;;;;;12.27;6.75;;;13.30;99.90;;;;;;5050879;28;20028;-75
2023/09/26 03:36:08;;;;;;;11.07;7.00;;;13.10;99.90;;;;;;5031007;28;20048;-74
2023/09/26 03:38:33;;;;;;;10.40;6.57;;;13.00;99.90;;;;;;5051650;28;20056;-74
2023/09/26 03:41:04;;;;;;;8.98;6.40;;;12.90;99.90;;;;;;5046829;28;20072;-74
2023/09/26 03:43:30;;;;;;;11.18;6.85;;;12.90;99.90;;;;;;5056189;28;20084;-74
2023/09/26 03:46:06;;;;;;;13.07;7.78;;;12.80;99.90;;;;;;5043316;28;20060;-74
2023/09/26 03:48:34;;;;;;;10.43;7.38;;;12.70;99.90;;;;;;5030867;28;20124;-74
2023/09/26 03:51:13;;;;;;;10.57;6.75;;;12.60;99.90;;;;;;5043774;28;20068;-74
2023/09/26 03:53:40;;;;;;;9.98;6.95;;;12.60;99.90;;;;;;5049352;28;20048;-74
2023/09/26 03:56:06;;;;;;;9.55;7.25;;;12.50;99.90;;;;;;5032153;28;20395;-74
2023/09/26 03:58:33;;;;;;;9.60;6.88;;;12.40;99.90;;;;;;5044949;28;20068;-74
2023/09/26 04:01:09;;;;;;;9.02;6.93;;;12.40;99.90;;;;;;5049302;28;20052;-74
2023/09/26 04:03:35;;;;;;;11.05;7.03;;;12.30;99.90;;;;;;5045884;28;20127;-74
2023/09/26 04:06:01;;;;;;;9.73;7.32;;;12.30;99.90;;;;;;5047118;28;20033;-74
2023/09/26 04:08:27;;;;;;;11.88;6.80;;;12.20;99.90;;;;;;5060840;28;20045;-74
2023/09/26 04:10:55;;;;;;;10.38;6.90;;;12.20;1.00;;;;;;5023103;28;20036;-74
2023/09/26 04:13:21;;;;;;;12.32;7.70;;;12.10;1.00;;;;;;5047105;28;20058;-76
2023/09/26 04:15:47;;;;;;;9.88;6.90;;;12.10;1.00;;;;;;5048782;28;20036;-75
2023/09/26 04:18:12;;;;;;;11.45;7.25;;;12.10;1.00;;;;;;5051643;28;20491;-75
2023/09/26 04:20:39;;;;;;;10.30;7.18;;;12.00;1.00;;;;;;5049623;28;20113;-75
2023/09/26 04:23:05;;;;;;;10.88;7.25;;;12.00;1.00;;;;;;5049669;28;20459;-75
2023/09/26 04:25:33;;;;;;;10.05;7.35;;;12.00;1.00;;;;;;5050163;28;20043;-76
2023/09/26 04:27:59;;;;;;;13.05;8.23;;;11.90;1.00;;;;;;5042839;28;20045;-75
2023/09/26 04:30:25;;;;;;;12.63;7.70;;;11.80;1.00;;;;;;5042376;28;20043;-76
2023/09/26 04:32:51;;;;;;;9.27;7.45;;;11.90;1.00;;;;;;5042043;28;20065;-75
2023/09/26 04:35:16;;;;;;;10.55;7.72;;;11.90;1.00;;;;;;5029844;28;20124;-76
2023/09/26 04:37:42;;;;;;;10.50;7.65;;;11.90;1.00;;;;;;5033747;28;20491;-75
2023/09/26 04:40:10;;;;;;;11.63;8.10;;;11.80;1.00;;;;;;5046835;28;20051;-75
2023/09/26 04:42:41;;;;;;;10.20;7.82;;;11.80;1.00;;;;;;5024018;28;20495;-75
2023/09/26 04:45:07;;;;;;;10.65;7.63;;;11.80;1.00;;;;;;5037258;28;20115;-75
2023/09/26 04:47:34;;;;;;;11.20;8.25;;;11.70;1.00;;;;;;5034484;28;20475;-75
2023/09/26 04:49:59;;;;;;;13.13;8.25;;;11.70;1.00;;;;;;5048480;28;20101;-75
2023/09/26 04:52:25;;;;;;;14.55;8.80;;;11.70;1.00;;;;;;5028758;28;20041;-75
2023/09/26 04:54:54;;;;;;;11.27;8.23;;;11.70;1.00;;;;;;5041406;28;20467;-75
2023/09/26 04:57:20;;;;;;;11.45;8.05;;;11.70;1.00;;;;;;5048503;28;20043;-75
2023/09/26 04:59:46;;;;;;;11.82;8.43;;;11.70;1.00;;;;;;5034232;28;20036;-75
2023/09/26 05:02:11;;;;;;;10.85;7.85;;;11.70;1.00;;;;;;5041460;28;20055;-75
2023/09/26 05:04:37;;;;;;;12.48;8.07;;;11.70;1.00;;;;;;5045507;28;20043;-75
2023/09/26 05:07:02;;;;;;;15.20;9.85;;;11.60;1.00;;;;;;5038658;28;20543;-74
2023/09/26 05:09:28;;;;;;;12.57;7.90;;;11.60;1.00;;;;;;5046393;28;20048;-74
2023/09/26 05:11:54;;;;;;;11.50;8.25;;;11.60;1.00;;;;;;5047583;28;20120;-75
2023/09/26 05:14:22;;;;;;;12.48;8.15;;;11.50;1.00;;;;;;5046902;28;20060;-75
2023/09/26 05:16:49;;;;;;;11.48;8.23;;;11.50;1.00;;;;;;5033398;28;20036;-75
2023/09/26 05:19:15;;;;;;;11.40;8.05;;;11.40;1.00;;;;;;5038049;28;20048;-75
2023/09/26 05:21:41;;;;;;;10.45;7.50;;;11.40;1.00;;;;;;5041573;28;20131;-74
2023/09/26 05:24:07;;;;;;;14.05;8.98;;;11.40;1.00;;;;;;5020491;28;20041;-74
2023/09/26 05:26:33;;;;;;;14.07;8.50;;;11.50;1.00;;;;;;5048211;28;20040;-74
2023/09/26 05:28:59;;;;;;;13.05;8.80;;;11.60;1.00;;;;;;5034407;28;20441;-74
2023/09/26 05:31:29;;;;;;;11.95;7.80;;;11.50;1.00;;;;;;5033664;28;20510;-74
2023/09/26 05:33:56;;;;;;;12.07;8.18;;;11.60;1.00;;;;;;5042222;28;20048;-74
2023/09/26 05:36:22;;;;;;;14.77;9.23;;;11.50;1.00;;;;;;5049270;28;20048;-74
2023/09/26 05:38:48;;;;;;;12.98;8.32;;;11.50;1.00;;;;;;5048500;28;20050;-74
2023/09/26 05:41:13;;;;;;;12.70;8.60;;;11.50;1.00;;;;;;5033735;28;20068;-74
2023/09/26 05:43:39;;;;;;;13.73;8.88;;;11.50;1.00;;;;;;5041472;28;20479;-74
2023/09/26 05:46:05;;;;;;;13.73;8.90;;;11.60;1.00;;;;;;5022548;28;20415;-74
2023/09/26 05:48:31;;;;;;;13.20;8.77;;;11.60;1.00;;;;;;5048918;28;20036;-74
2023/09/26 05:51:00;;;;;;;13.55;8.35;;;11.60;1.00;;;;;;5047974;28;20506;-74
2023/09/26 05:53:26;;;;;;;12.00;8.75;;;11.60;1.00;;;;;;5065996;28;20041;-74
2023/09/26 05:55:52;;;;;;;12.88;8.52;;;11.60;1.00;;;;;;5048591;28;20115;-74
2023/09/26 05:58:20;;;;;;;13.32;8.70;;;11.60;1.00;;;;;;5037396;28;20052;-74
2023/09/26 06:00:49;;;;;;;12.75;8.50;;;11.60;1.00;;;;;;5048722;28;20090;-74
2023/09/26 06:03:24;;;;;;;10.85;7.97;;;11.70;1.00;;;;;;5031271;28;20055;-74
2023/09/26 06:05:50;;;;;;;11.80;8.27;;;11.70;1.00;;;;;;5053220;28;20053;-75
2023/09/26 06:08:16;;;;;;;13.85;7.72;;;11.90;1.00;;;;;;5046562;28;20076;-75
2023/09/26 06:10:42;;;;;;;12.52;7.45;;;11.80;1.00;;;;;;5050115;28;20076;-75
2023/09/26 06:13:07;;;;;;;10.15;7.35;;;11.90;1.00;;;;;;5058809;28;20036;-75
2023/09/26 06:15:34;;;;;;;10.50;8.05;;;11.90;1.00;;;;;;5050008;28;20090;-75
2023/09/26 06:18:00;;;;;;;12.55;8.50;;;12.00;1.00;;;;;;5032887;28;20045;-75
2023/09/26 06:20:29;;;;;;;12.88;7.32;;;12.00;1.00;;;;;;5045821;28;20430;-75
2023/09/26 06:22:56;;;;;;;11.60;7.80;;;12.10;1.00;;;;;;5045547;28;20036;-75
2023/09/26 06:25:24;;;;;;;10.68;7.57;;;12.20;1.00;;;;;;5025953;28;20044;-76
2023/09/26 06:27:51;;;;;;;14.13;7.72;;;12.20;1.00;;;;;;5048122;28;20052;-75
2023/09/26 06:30:16;;;;;;;11.60;7.78;;;12.30;1.00;;;;;;5029180;28;20044;-76
2023/09/26 06:32:42;;;;;;;11.77;7.32;;;12.40;1.00;;;;;;5039365;28;20039;-76
2023/09/26 06:35:08;;;;;;;10.50;7.85;;;12.40;1.00;;;;;;5036828;28;20087;-76
2023/09/26 06:37:34;;;;;;;11.68;7.85;;;12.50;1.00;;;;;;5052012;28;20102;-75
2023/09/26 06:40:04;;;;;;;9.23;7.10;;;12.60;1.00;;;;;;5028426;28;20072;-75
2023/09/26 06:42:30;;;;;;;12.25;7.35;;;12.70;1.00;;;;;;5037858;28;20128;-74
2023/09/26 06:44:59;;;;;;;10.07;7.35;;;12.80;1.00;;;;;;5029982;28;20041;-74
2023/09/26 06:47:26;;;;;;;11.32;7.63;;;12.90;1.00;;;;;;5028626;28;20052;-74
2023/09/26 06:49:53;;;;;;;11.20;7.00;;;13.00;1.00;;;;;;5048231;28;20032;-74
2023/09/26 06:52:20;;;;;;;10.10;6.68;;;13.10;1.00;;;;;;5042095;28;20052;-74
2023/09/26 06:54:45;;;;;;;9.32;6.75;;;13.20;1.00;;;;;;5040732;28;20048;-74
2023/09/26 06:57:15;;;;;;;9.82;7.00;;;13.20;1.00;;;;;;5037374;28;20440;-74
2023/09/26 06:59:49;;;;;;;9.68;6.60;;;13.30;1.00;;;;;;5039745;28;20076;-73
2023/09/26 07:02:14;;;;;;;9.00;7.05;;;13.40;1.00;;;;;;5056173;28;20037;-74
2023/09/26 07:04:40;;;;;;;8.07;6.50;;;13.60;1.00;;;;;;5021598;28;20040;-74
2023/09/26 07:07:08;;;;;;;9.10;6.35;;;13.70;1.00;;;;;;5038884;28;20145;-73
2023/09/26 07:09:34;;;;;;;11.50;7.10;;;13.80;1.00;;;;;;5022600;28;20878;-74
2023/09/26 07:12:00;;;;;;;8.43;6.72;;;13.90;99.90;;;;;;5010663;28;20040;-74
2023/09/26 07:14:30;;;;;;;9.45;6.60;;;14.10;99.90;;;;;;5020784;28;20064;-74
2023/09/26 07:16:56;;;;;;;12.65;6.13;;;14.20;99.90;;;;;;5035884;28;20053;-74
2023/09/26 07:19:22;;;;;;;9.10;6.75;;;14.40;99.90;;;;;;5031653;28;20044;-74
2023/09/26 07:21:47;;;;;;;8.45;6.30;;;14.60;99.90;;;;;;5048635;28;20044;-74
2023/09/26 07:24:13;;;;;;;9.13;6.28;;;14.70;99.90;;;;;;5047283;28;20555;-74
2023/09/26 07:26:40;;;;;;;8.82;5.90;;;14.80;99.90;;;;;;5050461;28;20044;-75
2023/09/26 07:29:07;;;;;;;7.22;5.88;;;14.90;99.90;;;;;;5039647;28;20052;-75
2023/09/26 07:31:35;;;;;;;9.32;6.43;;;15.00;99.90;;;;;;5019991;28;20043;-75
2023/09/26 07:34:00;;;;;;;9.75;5.57;;;15.10;99.90;;;;;;5019609;28;20107;-75
2023/09/26 07:36:26;;;;;;;10.80;5.72;;;15.20;99.90;;;;;;5044757;28;20043;-75
2023/09/26 07:38:52;;;;;;;8.13;5.95;;;15.30;99.90;;;;;;5029596;28;20048;-75
2023/09/26 07:41:17;;;;;;;9.70;5.80;;;15.40;97.10;;;;;;5022729;28;20052;-75
2023/09/26 07:43:43;;;;;;;8.77;5.82;;;15.50;49.50;;;;;;5059272;28;20320;-75
2023/09/26 07:46:10;;;;;;;8.75;6.03;;;15.60;1.00;;;;;;5038661;28;20048;-75
2023/09/26 07:48:37;;;;;;;7.57;5.60;;;15.60;1.00;;;;;;5051950;28;20044;-74
2023/09/26 07:51:05;;;;;;;8.15;5.53;;;15.60;1.00;;;;;;5039298;28;20028;-75
2023/09/26 07:53:30;;;;;;;7.15;5.30;;;15.70;1.00;;;;;;5023682;28;20523;-75
2023/09/26 07:55:56;;;;;;;7.93;5.10;;;15.70;1.00;;;;;;5040283;28;20044;-75
2023/09/26 07:58:22;;;;;;;8.30;5.20;;;15.80;1.00;;;;;;5046521;28;20120;-75
2023/09/26 08:00:48;;;;;;;7.85;5.50;;;15.90;1.00;;;;;;5058396;28;20037;-75
2023/09/26 08:03:13;;;;;;;8.20;5.55;;;16.00;1.00;;;;;;5030495;28;20084;-75
2023/09/26 08:05:39;;;;;;;6.78;5.05;;;16.20;1.00;;;;;;5050246;28;20630;-75
2023/09/26 08:08:05;;;;;;;10.25;5.72;;;16.30;99.90;;;;;;5045610;28;20047;-73
2023/09/26 08:10:31;;;;;;;8.15;5.13;;;16.40;99.90;;;;;;5037901;28;20040;-75
2023/09/26 08:12:58;;;;;;;9.90;5.40;;;16.50;99.90;;;;;;5030373;28;20036;-73
2023/09/26 08:15:25;;;;;;;7.60;5.30;;;16.60;99.90;;;;;;5039083;28;20075;-74
2023/09/26 08:17:51;;;;;;;8.82;5.63;;;16.70;99.90;;;;;;5033829;28;20041;-73
2023/09/26 08:20:17;;;;;;;10.32;5.68;;;16.80;99.90;;;;;;5032828;28;20105;-73
2023/09/26 08:22:43;;;;;;;9.02;5.82;;;16.90;99.90;;;;;;5029554;28;20051;-74
2023/09/26 08:25:09;;;;;;;9.52;5.25;;;17.10;99.90;;;;;;5062019;28;20526;-74
2023/09/26 08:27:35;;;;;;;7.90;5.53;;;17.20;99.90;;;;;;5048197;28;20073;-74
2023/09/26 08:30:01;;;;;;;9.38;5.53;;;17.30;99.90;;;;;;5029451;28;20033;-74
2023/09/26 08:32:29;;;;;;;9.52;5.47;;;17.50;99.90;;;;;;5035439;28;20036;-74
2023/09/26 08:34:57;;;;;;;9.27;4.97;;;17.70;99.90;;;;;;5050936;28;20498;-74
2023/09/26 08:37:23;;;;;;;10.50;4.80;;;17.80;99.90;;;;;;5040192;28;20041;-74
2023/09/26 08:39:50;;;;;;;8.52;5.05;;;17.90;99.90;;;;;;5053976;28;20075;-74
2023/09/26 08:42:22;;;;;;;8.18;5.00;;;18.00;99.90;;;;;;5037166;28;20057;-74
2023/09/26 08:44:47;;;;;;;8.55;4.50;;;18.10;99.90;;;;;;5032968;28;20538;-74
2023/09/26 08:47:13;;;;;;;6.47;4.95;;;18.10;99.90;;;;;;5027870;28;20039;-74
2023/09/26 08:49:42;;;;;;;7.80;4.57;;;18.20;99.90;;;;;;5024221;28;20032;-74
2023/09/26 08:52:08;;;;;;;8.65;4.78;;;18.20;99.90;;;;;;5011414;28;20651;-74
2023/09/26 08:54:34;;;;;;;6.53;4.32;;;18.40;99.90;;;;;;5029235;28;20121;-74
2023/09/26 08:57:00;;;;;;;8.32;3.70;;;18.50;99.90;;;;;;5013439;28;20776;-74
2023/09/26 08:59:28;;;;;;;6.10;4.13;;;18.50;99.90;;;;;;5009875;28;20057;-74
2023/09/26 09:01:55;;;;;;;7.40;3.67;;;18.60;98.90;;;;;;5007751;28;20048;-74
2023/09/26 09:04:21;;;;;;;7.28;4.25;;;18.70;98.50;;;;;;5012809;28;20075;-74
2023/09/26 09:06:47;;;;;;;7.43;4.57;;;18.80;95.90;;;;;;5017656;28;20044;-74
2023/09/26 09:09:16;;;;;;;7.90;4.30;;;19.00;94.10;;;;;;5026830;28;20789;-74
2023/09/26 09:11:41;;;;;;;7.97;4.00;;;19.20;75.50;;;;;;5037476;28;20048;-74
2023/09/26 09:14:07;;;;;;;5.38;4.05;;;19.30;62.70;;;;;;5018649;28;20037;-74
2023/09/26 09:16:33;;;;;;;5.97;4.18;;;19.40;48.20;;;;;;5034249;28;20037;-74
2023/09/26 09:18:58;;;;;;;7.63;4.07;;;19.40;38.90;;;;;;5031258;28;20044;-75
2023/09/26 09:21:30;;;;;;;5.47;3.90;;;19.50;33.80;;;;;;5047419;28;20041;-74
2023/09/26 09:23:58;;;;;;;6.65;4.40;;;19.60;23.70;;;;;;5023451;28;20052;-75
2023/09/26 09:26:24;;;;;;;6.60;4.65;;;19.80;15.60;;;;;;5012748;28;20132;-75
2023/09/26 09:28:55;;;;;;;9.52;4.32;;;20.00;2.20;;;;;;5009907;28;20052;-75
2023/09/26 09:31:21;;;;;;;7.50;4.35;;;20.30;1.00;;;;;;5009374;28;20514;-75
2023/09/26 09:33:52;;;;;;;6.63;4.03;;;20.50;1.00;;;;;;5008146;28;20056;-75
2023/09/26 09:36:18;;;;;;;7.63;3.70;;;20.70;1.00;;;;;;5011765;28;20055;-74
2023/09/26 09:38:44;;;;;;;7.25;4.47;;;21.00;1.00;;;;;;5033599;28;20076;-74
2023/09/26 09:41:10;;;;;;;7.45;3.70;;;21.10;1.00;;;;;;5028186;28;20088;-75
2023/09/26 09:43:37;;;;;;;7.05;3.55;;;21.20;1.00;;;;;;5050464;28;20041;-75
2023/09/26 09:46:10;;;;;;;5.47;3.58;;;21.20;1.00;;;;;;5042413;28;20037;-75
2023/09/26 09:48:42;;;;;;;4.57;3.30;;;21.40;1.00;;;;;;5048792;28;20048;-75
2023/09/26 09:51:12;;;;;;;5.20;2.95;;;21.60;1.00;;;;;;5048502;28;20131;-75
2023/09/26 09:53:41;;;;;;;4.80;3.30;;;21.80;1.00;;;;;;5033502;28;20406;-75
2023/09/26 09:56:08;;;;;;;5.90;3.13;;;21.90;1.00;;;;;;5033062;28;20140;-73
2023/09/26 09:58:40;;;;;;;4.80;3.20;;;21.90;1.00;;;;;;5044646;28;20234;-75
2023/09/26 10:01:07;;;;;;;4.75;3.35;;;22.20;1.00;;;;;;5044739;28;20058;-75
2023/09/26 10:03:33;;;;;;;5.20;3.38;;;22.40;1.00;;;;;;5026586;28;20052;-76
2023/09/26 10:05:59;;;;;;;6.45;3.33;;;22.60;1.00;;;;;;5044470;28;20044;-73
2023/09/26 10:08:27;;;;;;;5.13;3.65;;;22.80;1.00;;;;;;5046548;28;20502;-73
2023/09/26 10:10:54;;;;;;;7.57;4.15;;;22.90;1.00;;;;;;5046760;28;20046;-73
2023/09/26 10:13:20;;;;;;;4.75;3.50;;;22.80;1.00;;;;;;5048651;28;20084;-73
2023/09/26 10:16:14;;;;;;;7.50;3.53;;;22.80;1.00;;;;;;5021640;28;20064;-73
2023/09/26 10:18:41;;;;;;;6.43;3.40;;;22.60;1.00;;;;;;5047272;28;20055;-74
2023/09/26 10:21:26;;;;;;;5.53;3.55;;;22.50;1.00;;;;;;5041472;28;20084;-74
2023/09/26 10:24:16;;;;;;;5.70;3.43;;;22.60;1.00;;;;;;5024503;28;20051;-74
2023/09/26 10:26:45;;;;;;;7.00;3.65;;;22.50;1.00;;;;;;5048758;28;20063;-74
2023/09/26 10:29:24;;;;;;;4.55;3.08;;;22.50;1.00;;;;;;5049944;28;20403;-74
2023/09/26 10:31:55;;;;;;;7.43;3.00;;;22.40;1.00;;;;;;5031042;28;20041;-74
2023/09/26 10:34:33;;;;;;;6.97;3.17;;;22.40;1.00;;;;;;5033879;28;20049;-74
2023/09/26 10:37:00;;;;;;;4.85;2.92;;;22.60;1.00;;;;;;5030780;28;20040;-74
2023/09/26 10:39:33;;;;;;;4.45;3.28;;;23.00;1.00;;;;;;5026704;28;20053;-74
2023/09/26 10:42:22;;;;;;;5.32;3.10;;;23.20;1.00;;;;;;5038201;28;20176;-75
2023/09/26 10:44:51;;;;;;;5.50;3.33;;;23.50;1.00;;;;;;5024027;28;20045;-74
2023/09/26 10:47:21;;;;;;;4.20;3.15;;;23.60;1.00;;;;;;5032693;28;20100;-75
2023/09/26 10:49:47;;;;;;;7.28;3.55;;;23.70;1.00;;;;;;5029034;28;20044;-75
2023/09/26 10:52:28;;;;;;;5.57;3.20;;;23.80;1.00;;;;;;5080020;27;20389;-75
2023/09/26 10:54:55;;;;;;;4.88;3.28;;;23.80;1.00;;;;;;5045248;28;20160;-73
2023/09/26 10:57:20;;;;;;;4.45;2.90;;;23.80;1.00;;;;;;5044576;28;20106;-74
2023/09/26 10:59:47;;;;;;;4.47;3.08;;;24.00;1.00;;;;;;5055810;28;20071;-74
2023/09/26 11:02:13;;;;;;;5.15;2.85;;;24.00;1.00;;;;;;5061033;28;20454;-74
2023/09/26 11:04:39;;;;;;;5.40;3.08;;;23.90;1.00;;;;;;5038738;28;20041;-76
2023/09/26 11:07:05;;;;;;;5.80;3.05;;;23.80;1.00;;;;;;5044173;28;20064;-75
2023/09/26 11:09:33;;;;;;;5.40;3.10;;;23.80;1.00;;;;;;5061483;28;20506;-76
2023/09/26 11:11:59;;;;;;;5.32;2.85;;;24.00;1.00;;;;;;5043825;28;20041;-76
2023/09/26 11:14:26;;;;;;;5.38;3.10;;;24.30;1.00;;;;;;5059017;28;20033;-76
2023/09/26 11:16:52;;;;;;;4.72;2.70;;;24.40;1.00;;;;;;5062872;28;20127;-76
2023/09/26 11:19:21;;;;;;;6.13;3.08;;;24.30;1.00;;;;;;5045583;28;20394;-76
2023/09/26 11:21:48;;;;;;;5.10;2.80;;;24.20;1.00;;;;;;5062408;28;20124;-76
2023/09/26 11:24:23;;;;;;;4.20;3.33;;;24.00;1.00;;;;;;5061517;28;20063;-76
2023/09/26 11:26:51;;;;;;;5.75;3.22;;;23.90;1.00;;;;;;5059402;28;20406;-74
2023/09/26 11:29:18;;;;;;;5.72;3.13;;;24.00;1.00;;;;;;5045867;28;20099;-74
2023/09/26 11:31:45;;;;;;;4.85;3.08;;;24.10;1.00;;;;;;5038934;28;20060;-76
2023/09/26 11:34:11;;;;;;;4.68;3.22;;;24.00;1.00;;;;;;5055572;28;20487;-74
2023/09/26 11:36:40;;;;;;;4.63;3.10;;;24.10;1.00;;;;;;5043040;28;20077;-73
2023/09/26 11:39:07;;;;;;;4.03;3.20;;;24.10;1.00;;;;;;5038485;28;20033;-74
2023/09/26 11:41:33;;;;;;;5.50;3.78;;;24.10;1.00;;;;;;5047666;28;20044;-76
2023/09/26 11:44:13;;;;;;;6.40;3.65;;;24.00;1.00;;;;;;5043557;28;20037;-77
2023/09/26 11:46:47;;;;;;;4.20;3.15;;;24.10;1.00;;;;;;5058716;28;20628;-78
2023/09/26 11:49:13;;;;;;;5.00;3.30;;;24.20;1.00;;;;;;5044322;28;20076;-78
2023/09/26 11:51:39;;;;;;;5.07;3.85;;;24.30;1.00;;;;;;5042706;28;20053;-79
2023/09/26 11:54:12;;;;;;;5.00;3.35;;;24.30;1.00;;;;;;5044924;28;20040;-79
2023/09/26 11:56:42;;;;;;;4.60;3.33;;;24.40;1.00;;;;;;5042085;28;20112;-79
2023/09/26 11:59:07;;;;;;;4.63;3.00;;;24.50;1.00;;;;;;5056822;28;20090;-79
2023/09/26 12:01:33;;;;;;;4.03;2.80;;;24.40;1.00;;;;;;5040796;28;20044;-79
2023/09/26 12:04:07;;;;;;;5.65;3.70;;;24.50;1.00;;;;;;5028678;28;20044;-79
2023/09/26 12:06:36;;;;;;;4.78;3.25;;;24.50;1.00;;;;;;5035179;28;20680;-77
2023/09/26 12:09:05;;;;;;;4.43;2.75;;;24.50;1.00;;;;;;5027143;28;20041;-78
2023/09/26 12:11:31;;;;;;;4.20;2.60;;;24.60;1.00;;;;;;5045730;28;20090;-78
2023/09/26 12:13:56;;;;;;;5.32;2.75;;;24.80;1.00;;;;;;5020957;28;20041;-77
2023/09/26 12:16:22;;;;;;;4.53;2.90;;;25.10;1.00;;;;;;5040603;28;20444;-78
2023/09/26 12:18:49;;;;;;;6.15;3.60;;;25.50;1.00;;;;;;5038667;28;20068;-78
2023/09/26 12:21:15;;;;;;;5.65;2.80;;;25.60;1.00;;;;;;5043543;28;20106;-78
2023/09/26 12:23:41;;;;;;;5.03;3.15;;;25.60;1.00;;;;;;5036179;28;20464;-78
2023/09/26 12:26:07;;;;;;;7.20;3.10;;;25.60;1.00;;;;;;5044563;28;20045;-78
2023/09/26 12:28:32;;;;;;;4.95;3.00;;;25.40;1.00;;;;;;5041326;28;20120;-78
2023/09/26 12:30:58;;;;;;;4.40;3.33;;;25.30;1.00;;;;;;5033965;28;20033;-78
2023/09/26 12:33:24;;;;;;;5.82;2.90;;;25.00;1.00;;;;;;5030256;28;20041;-78
2023/09/26 12:35:50;;;;;;;4.65;2.80;;;24.80;1.00;;;;;;5057620;28;20041;-79
2023/09/26 12:38:17;;;;;;;3.75;2.95;;;24.70;1.00;;;;;;5043292;28;20055;-78
2023/09/26 12:40:43;;;;;;;4.22;3.03;;;24.60;1.00;;;;;;5038263;28;20045;-78
2023/09/26 12:43:08;;;;;;;3.97;2.58;;;24.70;1.00;;;;;;5041262;28;20045;-79
2023/09/26 12:45:34;;;;;;;4.65;3.10;;;24.80;1.00;;;;;;5046305;28;20044;-79
2023/09/26 12:48:00;;;;;;;4.88;2.85;;;25.00;1.00;;;;;;5037062;28;20515;-79
2023/09/26 12:50:25;;;;;;;4.95;3.25;;;25.10;1.00;;;;;;5025169;28;20049;-79